sensor_id;sensor_type;location;lat;lon;timestamp;pressure;altitude;pressure_sealevel;temperature;humidity
76637;BME280;65532;52.124;5.480;2023-04-03T00:00:32;103090.97;;;2.30;84.10
76637;BME280;65532;52.124;5.480;2023-04-03T00:02:58;103090.13;;;2.30;84.16
76637;BME280;65532;52.124;5.480;2023-04-03T00:05:25;103086.50;;;2.31;84.35
76637;BME280;65532;52.124;5.480;2023-04-03T00:07:51;103095.34;;;2.31;83.86
76637;BME280;65532;52.124;5.480;2023-04-03T00:10:18;103092.09;;;2.28;84.27
76637;BME280;65532;52.124;5.480;2023-04-03T00:12:44;103104.72;;;2.26;84.59
76637;BME280;65532;52.124;5.480;2023-04-03T00:15:11;103104.97;;;2.23;84.97
76637;BME280;65532;52.124;5.480;2023-04-03T00:17:38;103098.78;;;2.22;85.00
76637;BME280;65532;52.124;5.480;2023-04-03T00:20:05;103101.91;;;2.16;84.30
76637;BME280;65532;52.124;5.480;2023-04-03T00:22:32;103097.53;;;2.15;84.73
76637;BME280;65532;52.124;5.480;2023-04-03T00:24:58;103105.66;;;2.14;84.66
76637;BME280;65532;52.124;5.480;2023-04-03T00:27:25;103101.41;;;2.11;85.27
76637;BME280;65532;52.124;5.480;2023-04-03T00:29:51;103092.69;;;2.09;84.31
76637;BME280;65532;52.124;5.480;2023-04-03T00:32:18;103099.72;;;2.10;84.92
76637;BME280;65532;52.124;5.480;2023-04-03T00:34:45;103097.41;;;2.05;85.48
76637;BME280;65532;52.124;5.480;2023-04-03T00:37:12;103097.63;;;2.02;85.05
76637;BME280;65532;52.124;5.480;2023-04-03T00:39:38;103100.19;;;2.04;85.81
76637;BME280;65532;52.124;5.480;2023-04-03T00:42:06;103102.13;;;2.02;85.22
76637;BME280;65532;52.124;5.480;2023-04-03T00:47:00;103110.75;;;1.94;85.70
76637;BME280;65532;52.124;5.480;2023-04-03T00:49:27;103116.09;;;1.94;86.11
76637;BME280;65532;52.124;5.480;2023-04-03T00:51:55;103113.66;;;1.91;86.29
76637;BME280;65532;52.124;5.480;2023-04-03T00:54:23;103119.22;;;1.88;86.88
76637;BME280;65532;52.124;5.480;2023-04-03T00:56:51;103118.47;;;1.86;86.59
76637;BME280;65532;52.124;5.480;2023-04-03T00:59:41;103122.97;;;1.86;86.58
76637;BME280;65532;52.124;5.480;2023-04-03T01:02:10;103116.78;;;1.85;86.88
76637;BME280;65532;52.124;5.480;2023-04-03T01:04:40;103114.47;;;1.80;86.61
76637;BME280;65532;52.124;5.480;2023-04-03T01:07:14;103120.06;;;1.77;86.95
76637;BME280;65532;52.124;5.480;2023-04-03T01:09:42;103122.00;;;1.75;87.73
76637;BME280;65532;52.124;5.480;2023-04-03T01:14:59;103122.44;;;1.69;88.13
76637;BME280;65532;52.124;5.480;2023-04-03T01:17:43;103122.56;;;1.68;88.42
76637;BME280;65532;52.124;5.480;2023-04-03T01:25:36;103135.78;;;1.58;88.78
76637;BME280;65532;52.124;5.480;2023-04-03T01:28:04;103126.16;;;1.56;89.44
76637;BME280;65532;52.124;5.480;2023-04-03T01:30:34;103130.75;;;1.54;89.58
76637;BME280;65532;52.124;5.480;2023-04-03T01:33:03;103120.81;;;1.56;89.91
76637;BME280;65532;52.124;5.480;2023-04-03T01:35:30;103119.13;;;1.55;89.87
76637;BME280;65532;52.124;5.480;2023-04-03T01:37:57;103130.03;;;1.52;89.86
76637;BME280;65532;52.124;5.480;2023-04-03T01:40:23;103131.97;;;1.49;89.67
76637;BME280;65532;52.124;5.480;2023-04-03T01:42:50;103123.22;;;1.47;90.40
76637;BME280;65532;52.124;5.480;2023-04-03T01:45:16;103124.31;;;1.45;90.17
76637;BME280;65532;52.124;5.480;2023-04-03T01:47:43;103122.50;;;1.45;90.50
76637;BME280;65532;52.124;5.480;2023-04-03T01:50:09;103125.41;;;1.42;90.45
76637;BME280;65532;52.124;5.480;2023-04-03T01:52:36;103124.63;;;1.40;90.59
76637;BME280;65532;52.124;5.480;2023-04-03T01:55:04;103123.78;;;1.40;90.84
76637;BME280;65532;52.124;5.480;2023-04-03T01:57:30;103123.91;;;1.38;90.80
76637;BME280;65532;52.124;5.480;2023-04-03T01:59:57;103123.91;;;1.38;90.90
76637;BME280;65532;52.124;5.480;2023-04-03T02:02:23;103125.84;;;1.36;91.23
76637;BME280;65532;52.124;5.480;2023-04-03T02:04:51;103126.31;;;1.30;90.79
76637;BME280;65532;52.124;5.480;2023-04-03T02:07:17;103131.09;;;1.25;91.18
76637;BME280;65532;52.124;5.480;2023-04-03T02:09:44;103132.06;;;1.24;91.41
76637;BME280;65532;52.124;5.480;2023-04-03T02:12:10;103134.00;;;1.22;91.84
76637;BME280;65532;52.124;5.480;2023-04-03T02:14:37;103139.34;;;1.22;91.28
76637;BME280;65532;52.124;5.480;2023-04-03T02:17:03;103142.97;;;1.21;91.44
76637;BME280;65532;52.124;5.480;2023-04-03T02:19:34;103139.34;;;1.22;91.81
76637;BME280;65532;52.124;5.480;2023-04-03T02:22:02;103138.38;;;1.23;91.49
76637;BME280;65532;52.124;5.480;2023-04-03T02:24:29;103140.53;;;1.18;91.61
76637;BME280;65532;52.124;5.480;2023-04-03T02:26:58;103145.75;;;1.19;91.82
76637;BME280;65532;52.124;5.480;2023-04-03T02:29:25;103140.44;;;1.19;91.95
76637;BME280;65532;52.124;5.480;2023-04-03T02:31:52;103147.06;;;1.14;92.07
76637;BME280;65532;52.124;5.480;2023-04-03T02:34:20;103134.16;;;1.08;92.24
76637;BME280;65532;52.124;5.480;2023-04-03T02:36:47;103133.44;;;1.06;91.94
76637;BME280;65532;52.124;5.480;2023-04-03T02:39:15;103145.06;;;1.05;92.02
76637;BME280;65532;52.124;5.480;2023-04-03T02:41:43;103135.59;;;1.01;92.38
76637;BME280;65532;52.124;5.480;2023-04-03T02:44:15;103146.50;;;0.98;92.24
76637;BME280;65532;52.124;5.480;2023-04-03T02:46:41;103143.09;;;0.96;92.10
76637;BME280;65532;52.124;5.480;2023-04-03T02:49:08;103139.66;;;0.94;92.37
76637;BME280;65532;52.124;5.480;2023-04-03T02:51:34;103144.97;;;0.94;92.71
76637;BME280;65532;52.124;5.480;2023-04-03T02:54:01;103154.59;;;0.96;92.77
76637;BME280;65532;52.124;5.480;2023-04-03T02:56:31;103157.69;;;0.90;92.74
76637;BME280;65532;52.124;5.480;2023-04-03T02:58:57;103157.81;;;0.88;92.56
76637;BME280;65532;52.124;5.480;2023-04-03T03:01:24;103155.47;;;0.84;92.45
76637;BME280;65532;52.124;5.480;2023-04-03T03:03:53;103158.03;;;0.85;92.37
76637;BME280;65532;52.124;5.480;2023-04-03T03:06:19;103161.66;;;0.84;92.37
76637;BME280;65532;52.124;5.480;2023-04-03T03:08:46;103175.09;;;0.83;92.64
76637;BME280;65532;52.124;5.480;2023-04-03T03:11:13;103163.81;;;0.79;92.83
76637;BME280;65532;52.124;5.480;2023-04-03T03:13:40;103176.59;;;0.74;92.46
76637;BME280;65532;52.124;5.480;2023-04-03T03:16:07;103173.09;;;0.74;92.54
76637;BME280;65532;52.124;5.480;2023-04-03T03:18:34;103177.56;;;0.73;92.74
76637;BME280;65532;52.124;5.480;2023-04-03T03:21:02;103178.53;;;0.72;92.66
76637;BME280;65532;52.124;5.480;2023-04-03T03:23:30;103172.34;;;0.72;92.38
76637;BME280;65532;52.124;5.480;2023-04-03T03:26:07;103173.19;;;0.72;91.83
76637;BME280;65532;52.124;5.480;2023-04-03T03:28:35;103178.63;;;0.71;91.85
76637;BME280;65532;52.124;5.480;2023-04-03T03:31:02;103174.16;;;0.71;91.95
76637;BME280;65532;52.124;5.480;2023-04-03T03:33:31;103173.41;;;0.69;92.22
76637;BME280;65532;52.124;5.480;2023-04-03T03:35:59;103173.53;;;0.68;91.75
76637;BME280;65532;52.124;5.480;2023-04-03T03:38:26;103178.97;;;0.66;92.19
76637;BME280;65532;52.124;5.480;2023-04-03T03:40:53;103175.56;;;0.64;91.50
76637;BME280;65532;52.124;5.480;2023-04-03T03:43:21;103178.00;;;0.67;91.97
76637;BME280;65532;52.124;5.480;2023-04-03T03:45:51;103178.97;;;0.66;91.32
76637;BME280;65532;52.124;5.480;2023-04-03T03:48:19;103176.50;;;0.63;91.44
76637;BME280;65532;52.124;5.480;2023-04-03T03:50:47;103173.94;;;0.62;91.40
76637;BME280;65532;52.124;5.480;2023-04-03T03:53:14;103175.75;;;0.61;91.49
76637;BME280;65532;52.124;5.480;2023-04-03T03:55:42;103183.00;;;0.59;91.45
76637;BME280;65532;52.124;5.480;2023-04-03T03:58:08;103179.72;;;0.55;91.40
76637;BME280;65532;52.124;5.480;2023-04-03T04:00:36;103182.59;;;0.52;91.55
76637;BME280;65532;52.124;5.480;2023-04-03T04:03:03;103178.34;;;0.50;90.79
76637;BME280;65532;52.124;5.480;2023-04-03T04:05:30;103184.72;;;0.47;90.89
76637;BME280;65532;52.124;5.480;2023-04-03T04:07:58;103191.13;;;0.45;90.67
76637;BME280;65532;52.124;5.480;2023-04-03T04:10:25;103182.38;;;0.43;90.54
76637;BME280;65532;52.124;5.480;2023-04-03T04:12:53;103185.59;;;0.48;89.86
76637;BME280;65532;52.124;5.480;2023-04-03T04:15:25;103183.00;;;0.46;90.12
76637;BME280;65532;52.124;5.480;2023-04-03T04:17:53;103194.53;;;0.47;90.37
76637;BME280;65532;52.124;5.480;2023-04-03T04:20:20;103194.75;;;0.44;90.04
76637;BME280;65532;52.124;5.480;2023-04-03T04:22:47;103205.41;;;0.44;90.21
76637;BME280;65532;52.124;5.480;2023-04-03T04:25:15;103201.03;;;0.43;90.04
76637;BME280;65532;52.124;5.480;2023-04-03T04:27:41;103202.94;;;0.41;90.15
76637;BME280;65532;52.124;5.480;2023-04-03T04:30:08;103200.28;;;0.41;89.78
76637;BME280;65532;52.124;5.480;2023-04-03T04:32:36;103205.63;;;0.41;89.87
76637;BME280;65532;52.124;5.480;2023-04-03T04:35:04;103206.69;;;0.38;89.41
76637;BME280;65532;52.124;5.480;2023-04-03T04:37:34;103200.63;;;0.36;89.61
76637;BME280;65532;52.124;5.480;2023-04-03T04:40:00;103205.94;;;0.36;89.28
76637;BME280;65532;52.124;5.480;2023-04-03T04:42:27;103214.69;;;0.38;88.59
76637;BME280;65532;52.124;5.480;2023-04-03T04:44:54;103214.78;;;0.37;88.80
76637;BME280;65532;52.124;5.480;2023-04-03T04:47:21;103215.00;;;0.34;88.74
76637;BME280;65532;52.124;5.480;2023-04-03T04:49:48;103214.22;;;0.32;88.96
76637;BME280;65532;52.124;5.480;2023-04-03T04:52:14;103217.84;;;0.30;88.75
76637;BME280;65532;52.124;5.480;2023-04-03T04:54:41;103218.81;;;0.29;88.53
76637;BME280;65532;52.124;5.480;2023-04-03T04:57:08;103215.41;;;0.27;88.51
76637;BME280;65532;52.124;5.480;2023-04-03T04:59:37;103220.94;;;0.24;88.55
76637;BME280;65532;52.124;5.480;2023-04-03T05:02:06;103224.78;;;0.20;88.08
76637;BME280;65532;52.124;5.480;2023-04-03T05:04:33;103214.88;;;0.22;88.09
76637;BME280;65532;52.124;5.480;2023-04-03T05:07:06;103220.22;;;0.22;88.10
76637;BME280;65532;52.124;5.480;2023-04-03T05:09:36;103222.88;;;0.22;88.12
76637;BME280;65532;52.124;5.480;2023-04-03T05:12:02;103224.69;;;0.22;88.32
76637;BME280;65532;52.124;5.480;2023-04-03T05:14:35;103220.41;;;0.19;88.45
76637;BME280;65532;52.124;5.480;2023-04-03T05:17:05;103224.16;;;0.17;88.74
76637;BME280;65532;52.124;5.480;2023-04-03T05:19:35;103221.50;;;0.17;88.47
76637;BME280;65532;52.124;5.480;2023-04-03T05:22:04;103233.94;;;0.16;88.46
76637;BME280;65532;52.124;5.480;2023-04-03T05:24:30;103229.56;;;0.15;88.35
76637;BME280;65532;52.124;5.480;2023-04-03T05:26:57;103235.66;;;0.17;88.45
76637;BME280;65532;52.124;5.480;2023-04-03T05:29:24;103236.63;;;0.16;89.07
76637;BME280;65532;52.124;5.480;2023-04-03T05:31:50;103241.06;;;0.16;88.94
76637;BME280;65532;52.124;5.480;2023-04-03T05:34:17;103248.97;;;0.17;89.07
76637;BME280;65532;52.124;5.480;2023-04-03T05:36:46;103246.09;;;0.20;89.20
76637;BME280;65532;52.124;5.480;2023-04-03T05:39:14;103248.66;;;0.22;89.20
76637;BME280;65532;52.124;5.480;2023-04-03T05:41:43;103243.97;;;0.25;89.46
76637;BME280;65532;52.124;5.480;2023-04-03T05:44:10;103240.34;;;0.26;89.85
76637;BME280;65532;52.124;5.480;2023-04-03T05:46:36;103250.25;;;0.24;89.94
76637;BME280;65532;52.124;5.480;2023-04-03T05:49:05;103247.38;;;0.27;89.96
76637;BME280;65532;52.124;5.480;2023-04-03T05:51:36;103256.97;;;0.30;89.64
76637;BME280;65532;52.124;5.480;2023-04-03T05:54:29;103258.59;;;0.33;89.89
76637;BME280;65532;52.124;5.480;2023-04-03T05:57:26;103253.78;;;0.38;90.08
76637;BME280;65532;52.124;5.480;2023-04-03T05:59:53;103260.81;;;0.39;89.71
76637;BME280;65532;52.124;5.480;2023-04-03T06:02:21;103262.31;;;0.43;90.34
76637;BME280;65532;52.124;5.480;2023-04-03T06:04:50;103259.44;;;0.46;90.03
76637;BME280;65532;52.124;5.480;2023-04-03T06:07:20;103263.41;;;0.53;90.31
76637;BME280;65532;52.124;5.480;2023-04-03T06:09:50;103265.75;;;0.57;90.29
76637;BME280;65532;52.124;5.480;2023-04-03T06:12:18;103270.84;;;0.60;90.81
76637;BME280;65532;52.124;5.480;2023-04-03T06:14:44;103269.69;;;0.65;91.22
76637;BME280;65532;52.124;5.480;2023-04-03T06:17:14;103273.75;;;0.70;91.06
76637;BME280;65532;52.124;5.480;2023-04-03T06:19:41;103272.56;;;0.74;91.34
76637;BME280;65532;52.124;5.480;2023-04-03T06:22:08;103271.50;;;0.77;91.41
76637;BME280;65532;52.124;5.480;2023-04-03T06:24:35;103274.72;;;0.82;91.61
76637;BME280;65532;52.124;5.480;2023-04-03T06:27:02;103278.75;;;0.87;91.51
76637;BME280;65532;52.124;5.480;2023-04-03T06:29:28;103283.88;;;0.90;91.71
76637;BME280;65532;52.124;5.480;2023-04-03T06:31:55;103276.41;;;0.96;91.86
76637;BME280;65532;52.124;5.480;2023-04-03T06:34:22;103283.13;;;1.01;92.66
76637;BME280;65532;52.124;5.480;2023-04-03T06:36:49;103279.16;;;1.07;92.32
76637;BME280;65532;52.124;5.480;2023-04-03T06:39:19;103283.84;;;1.16;92.02
76637;BME280;65532;52.124;5.480;2023-04-03T06:41:49;103281.81;;;1.19;92.34
76637;BME280;65532;52.124;5.480;2023-04-03T06:44:18;103283.41;;;1.22;92.57
76637;BME280;65532;52.124;5.480;2023-04-03T06:46:44;103286.63;;;1.27;93.06
76637;BME280;65532;52.124;5.480;2023-04-03T06:49:12;103287.88;;;1.34;92.65
76637;BME280;65532;52.124;5.480;2023-04-03T06:51:39;103293.41;;;1.44;92.51
76637;BME280;65532;52.124;5.480;2023-04-03T06:54:06;103293.81;;;1.50;92.96
76637;BME280;65532;52.124;5.480;2023-04-03T06:56:32;103299.47;;;1.59;92.61
76637;BME280;65532;52.124;5.480;2023-04-03T06:58:59;103304.56;;;1.62;92.87
76637;BME280;65532;52.124;5.480;2023-04-03T07:01:28;103307.75;;;1.67;93.00
76637;BME280;65532;52.124;5.480;2023-04-03T07:03:55;103310.59;;;1.76;92.44
76637;BME280;65532;52.124;5.480;2023-04-03T07:06:21;103311.00;;;1.83;92.60
76637;BME280;65532;52.124;5.480;2023-04-03T07:08:48;103312.28;;;1.90;92.25
76637;BME280;65532;52.124;5.480;2023-04-03T07:11:16;103304.28;;;2.01;92.22
76637;BME280;65532;52.124;5.480;2023-04-03T07:13:42;103310.53;;;2.13;92.55
76637;BME280;65532;52.124;5.480;2023-04-03T07:16:09;103319.91;;;2.19;91.57
76637;BME280;65532;52.124;5.480;2023-04-03T07:18:36;103318.50;;;2.26;91.34
76637;BME280;65532;52.124;5.480;2023-04-03T07:21:04;103312.13;;;3.30;91.64
76637;BME280;65532;52.124;5.480;2023-04-03T07:23:30;103317.69;;;6.19;88.66
76637;BME280;65532;52.124;5.480;2023-04-03T07:25:57;103311.44;;;7.14;76.28
76637;BME280;65532;52.124;5.480;2023-04-03T07:28:24;103317.06;;;7.58;71.13
76637;BME280;65532;52.124;5.480;2023-04-03T07:31:00;103321.38;;;8.31;67.86
76637;BME280;65532;52.124;5.480;2023-04-03T07:33:27;103309.53;;;9.54;63.96
76637;BME280;65532;52.124;5.480;2023-04-03T07:35:54;103323.31;;;9.35;60.79
76637;BME280;65532;52.124;5.480;2023-04-03T07:38:20;103312.03;;;9.13;59.60
76637;BME280;65532;52.124;5.480;2023-04-03T07:40:48;103312.25;;;9.54;59.69
76637;BME280;65532;52.124;5.480;2023-04-03T07:43:16;103320.25;;;10.46;56.08
76637;BME280;65532;52.124;5.480;2023-04-03T07:45:43;103318.03;;;9.67;55.44
76637;BME280;65532;52.124;5.480;2023-04-03T07:48:11;103326.06;;;10.09;55.55
76637;BME280;65532;52.124;5.480;2023-04-03T07:50:40;103322.22;;;10.20;54.98
76637;BME280;65532;52.124;5.480;2023-04-03T07:53:07;103323.22;;;11.08;53.87
76637;BME280;65532;52.124;5.480;2023-04-03T07:55:34;103326.50;;;10.31;51.79
76637;BME280;65532;52.124;5.480;2023-04-03T07:58:04;103321.91;;;10.23;52.20
76637;BME280;65532;52.124;5.480;2023-04-03T08:00:31;103332.25;;;10.76;51.51
76637;BME280;65532;52.124;5.480;2023-04-03T08:02:57;103334.19;;;10.01;51.05
76637;BME280;65532;52.124;5.480;2023-04-03T08:05:24;103331.41;;;9.77;51.72
76637;BME280;65532;52.124;5.480;2023-04-03T08:07:50;103325.81;;;10.29;50.53
76637;BME280;65532;52.124;5.480;2023-04-03T08:10:17;103328.88;;;9.75;49.68
76637;BME280;65532;52.124;5.480;2023-04-03T08:12:46;103332.50;;;9.50;50.09
76637;BME280;65532;52.124;5.480;2023-04-03T08:15:13;103342.25;;;9.43;50.65
76637;BME280;65532;52.124;5.480;2023-04-03T08:17:40;103344.69;;;9.20;50.72
76637;BME280;65532;52.124;5.480;2023-04-03T08:20:07;103347.88;;;9.15;49.95
76637;BME280;65532;52.124;5.480;2023-04-03T08:22:34;103344.00;;;9.52;49.66
76637;BME280;65532;52.124;5.480;2023-04-03T08:25:05;103349.38;;;9.44;50.09
76637;BME280;65532;52.124;5.480;2023-04-03T08:27:45;103345.28;;;9.40;49.28
76637;BME280;65532;52.124;5.480;2023-04-03T08:30:15;103345.63;;;9.37;48.21
76637;BME280;65532;52.124;5.480;2023-04-03T08:32:43;103333.25;;;9.68;46.14
76637;BME280;65532;52.124;5.480;2023-04-03T08:35:11;103350.13;;;9.62;45.17
76637;BME280;65532;52.124;5.480;2023-04-03T08:37:39;103351.78;;;10.05;45.58
76637;BME280;65532;52.124;5.480;2023-04-03T08:40:11;103352.28;;;10.09;44.77
76637;BME280;65532;52.124;5.480;2023-04-03T08:42:45;103352.91;;;10.61;44.84
76637;BME280;65532;52.124;5.480;2023-04-03T08:45:42;103355.09;;;10.66;40.77
76637;BME280;65532;52.124;5.480;2023-04-03T08:48:39;103358.78;;;9.66;42.50
76637;BME280;65532;52.124;5.480;2023-04-03T08:51:14;103355.97;;;9.83;42.57
76637;BME280;65532;52.124;5.480;2023-04-03T08:53:54;103357.94;;;9.65;41.22
76637;BME280;65532;52.124;5.480;2023-04-03T08:56:24;103364.41;;;8.51;41.65
76637;BME280;65532;52.124;5.480;2023-04-03T08:59:04;103364.66;;;7.39;42.75
76637;BME280;65532;52.124;5.480;2023-04-03T09:01:39;103366.75;;;6.99;43.84
76637;BME280;65532;52.124;5.480;2023-04-03T09:04:15;103359.22;;;7.12;45.53
76637;BME280;65532;52.124;5.480;2023-04-03T09:06:54;103363.72;;;7.21;44.93
76637;BME280;65532;52.124;5.480;2023-04-03T09:09:32;103352.16;;;6.91;43.73
76637;BME280;65532;52.124;5.480;2023-04-03T09:12:06;103347.06;;;6.98;44.24
76637;BME280;65532;52.124;5.480;2023-04-03T09:14:39;103344.53;;;6.97;44.61
76637;BME280;65532;52.124;5.480;2023-04-03T09:17:16;103360.25;;;6.91;43.04
76637;BME280;65532;52.124;5.480;2023-04-03T09:19:50;103361.22;;;7.00;43.31
76637;BME280;65532;52.124;5.480;2023-04-03T09:22:24;103349.47;;;6.91;43.00
76637;BME280;65532;52.124;5.480;2023-04-03T09:25:17;103353.22;;;7.28;43.80
76637;BME280;65532;52.124;5.480;2023-04-03T09:27:45;103368.25;;;7.20;42.44
76637;BME280;65532;52.124;5.480;2023-04-03T09:30:20;103352.72;;;7.05;40.59
76637;BME280;65532;52.124;5.480;2023-04-03T09:32:50;103364.78;;;7.01;41.56
76637;BME280;65532;52.124;5.480;2023-04-03T09:35:21;103356.41;;;6.94;39.68
76637;BME280;65532;52.124;5.480;2023-04-03T09:40:42;103341.81;;;7.43;40.58
76637;BME280;65532;52.124;5.480;2023-04-03T09:43:27;103346.38;;;7.33;39.30
76637;BME280;65532;52.124;5.480;2023-04-03T09:45:55;103339.44;;;7.31;39.84
76637;BME280;65532;52.124;5.480;2023-04-03T09:48:25;103345.50;;;7.42;38.55
76637;BME280;65532;52.124;5.480;2023-04-03T09:50:55;103344.88;;;7.58;38.83
76637;BME280;65532;52.124;5.480;2023-04-03T09:53:38;103329.78;;;7.65;35.77
76637;BME280;65532;52.124;5.480;2023-04-03T09:56:28;103332.13;;;7.50;37.55
76637;BME280;65532;52.124;5.480;2023-04-03T10:01:30;103324.91;;;8.14;37.18
76637;BME280;65532;52.124;5.480;2023-04-03T10:06:39;103312.13;;;8.16;36.22
76637;BME280;65532;52.124;5.480;2023-04-03T10:09:21;103312.75;;;8.28;37.75
76637;BME280;65532;52.124;5.480;2023-04-03T10:14:28;103305.25;;;8.57;36.97
76637;BME280;65532;52.124;5.480;2023-04-03T10:19:58;103315.13;;;8.92;35.89
76637;BME280;65532;52.124;5.480;2023-04-03T10:28:31;103302.13;;;8.44;37.10
76637;BME280;65532;52.124;5.480;2023-04-03T10:34:29;103290.13;;;8.64;37.32
76637;BME280;65532;52.124;5.480;2023-04-03T10:37:17;103283.97;;;8.80;38.81
76637;BME280;65532;52.124;5.480;2023-04-03T10:42:39;103275.09;;;8.88;37.27
76637;BME280;65532;52.124;5.480;2023-04-03T10:45:26;103269.00;;;8.86;36.22
76637;BME280;65532;52.124;5.480;2023-04-03T10:48:02;103256.53;;;8.93;36.05
76637;BME280;65532;52.124;5.480;2023-04-03T10:50:54;103247.75;;;9.25;36.76
76637;BME280;65532;52.124;5.480;2023-04-03T10:53:37;103264.47;;;8.94;35.59
76637;BME280;65532;52.124;5.480;2023-04-03T10:56:14;103269.47;;;8.81;36.48
76637;BME280;65532;52.124;5.480;2023-04-03T10:58:45;103265.75;;;8.82;36.45
76637;BME280;65532;52.124;5.480;2023-04-03T11:01:21;103264.16;;;8.97;38.31
76637;BME280;65532;52.124;5.480;2023-04-03T11:03:53;103252.56;;;9.55;37.35
76637;BME280;65532;52.124;5.480;2023-04-03T11:06:24;103257.38;;;9.27;37.81
76637;BME280;65532;52.124;5.480;2023-04-03T11:09:02;103245.53;;;9.28;37.41
76637;BME280;65532;52.124;5.480;2023-04-03T11:11:34;103258.97;;;9.04;37.20
76637;BME280;65532;52.124;5.480;2023-04-03T11:14:34;103238.09;;;9.22;37.86
76637;BME280;65532;52.124;5.480;2023-04-03T11:17:21;103243.91;;;9.44;37.14
76637;BME280;65532;52.124;5.480;2023-04-03T11:20:13;103236.91;;;9.67;37.96
76637;BME280;65532;52.124;5.480;2023-04-03T11:22:43;103243.50;;;9.73;36.82
76637;BME280;65532;52.124;5.480;2023-04-03T11:27:42;103231.44;;;9.51;37.77
76637;BME280;65532;52.124;5.480;2023-04-03T11:30:18;103228.75;;;9.59;37.73
76637;BME280;65532;52.124;5.480;2023-04-03T11:33:12;103250.50;;;9.41;36.11
76637;BME280;65532;52.124;5.480;2023-04-03T11:35:46;103239.13;;;9.21;37.85
76637;BME280;65532;52.124;5.480;2023-04-03T11:38:22;103245.75;;;9.35;37.02
76637;BME280;65532;52.124;5.480;2023-04-03T11:40:50;103240.25;;;9.53;37.25
76637;BME280;65532;52.124;5.480;2023-04-03T11:43:22;103235.88;;;9.68;37.39
76637;BME280;65532;52.124;5.480;2023-04-03T11:45:52;103232.69;;;9.22;36.34
76637;BME280;65532;52.124;5.480;2023-04-03T11:50:59;103248.94;;;9.30;36.58
76637;BME280;65532;52.124;5.480;2023-04-03T11:53:29;103237.25;;;9.22;36.78
76637;BME280;65532;52.124;5.480;2023-04-03T11:55:58;103241.47;;;9.16;37.71
76637;BME280;65532;52.124;5.480;2023-04-03T11:58:29;103236.47;;;9.46;36.32
76637;BME280;65532;52.124;5.480;2023-04-03T12:03:31;103222.56;;;9.24;36.66
76637;BME280;65532;52.124;5.480;2023-04-03T12:11:15;103212.53;;;9.59;37.68
76637;BME280;65532;52.124;5.480;2023-04-03T12:16:24;103208.31;;;9.65;36.86
76637;BME280;65532;52.124;5.480;2023-04-03T12:18:56;103201.25;;;9.88;36.65
76637;BME280;65532;52.124;5.480;2023-04-03T12:23:59;103197.69;;;9.63;36.58
76637;BME280;65532;52.124;5.480;2023-04-03T12:26:48;103192.56;;;9.52;37.54
76637;BME280;65532;52.124;5.480;2023-04-03T12:29:23;103188.56;;;9.80;36.01
76637;BME280;65532;52.124;5.480;2023-04-03T12:43:17;103164.38;;;9.71;36.29
76637;BME280;65532;52.124;5.480;2023-04-03T12:45:50;103165.91;;;9.65;36.46
76637;BME280;65532;52.124;5.480;2023-04-03T12:48:25;103167.91;;;9.71;36.69
76637;BME280;65532;52.124;5.480;2023-04-03T12:50:56;103167.56;;;9.50;37.93
76637;BME280;65532;52.124;5.480;2023-04-03T12:53:34;103155.69;;;9.43;37.72
76637;BME280;65532;52.124;5.480;2023-04-03T12:58:51;103150.28;;;9.35;37.84
76637;BME280;65532;52.124;5.480;2023-04-03T13:01:25;103146.91;;;9.41;38.52
76637;BME280;65532;52.124;5.480;2023-04-03T13:03:55;103141.88;;;9.54;38.05
76637;BME280;65532;52.124;5.480;2023-04-03T13:06:24;103140.53;;;9.66;38.37
76637;BME280;65532;52.124;5.480;2023-04-03T13:08:55;103149.31;;;9.68;38.65
76637;BME280;65532;52.124;5.480;2023-04-03T13:11:30;103130.53;;;9.58;38.62
76637;BME280;65532;52.124;5.480;2023-04-03T13:14:00;103132.22;;;9.59;39.07
76637;BME280;65532;52.124;5.480;2023-04-03T13:16:28;103136.13;;;9.65;38.59
76637;BME280;65532;52.124;5.480;2023-04-03T13:18:55;103138.66;;;9.91;38.54
76637;BME280;65532;52.124;5.480;2023-04-03T13:21:25;103133.06;;;10.25;39.11
76637;BME280;65532;52.124;5.480;2023-04-03T13:23:56;103130.38;;;9.93;37.68
76637;BME280;65532;52.124;5.480;2023-04-03T13:26:39;103127.00;;;9.99;39.59
76637;BME280;65532;52.124;5.480;2023-04-03T13:29:19;103124.44;;;10.05;38.54
76637;BME280;65532;52.124;5.480;2023-04-03T13:31:56;103117.16;;;10.14;37.85
76637;BME280;65532;52.124;5.480;2023-04-03T13:34:27;103114.97;;;10.26;36.97
76637;BME280;65532;52.124;5.480;2023-04-03T13:37:00;103121.59;;;9.90;37.78
76637;BME280;65532;52.124;5.480;2023-04-03T13:39:34;103117.38;;;9.72;36.88
76637;BME280;65532;52.124;5.480;2023-04-03T13:42:16;103117.22;;;9.81;38.60
76637;BME280;65532;52.124;5.480;2023-04-03T13:44:43;103118.88;;;9.99;38.72
76637;BME280;65532;52.124;5.480;2023-04-03T13:49:43;103138.31;;;9.78;37.42
76637;BME280;65532;52.124;5.480;2023-04-03T13:52:33;103129.03;;;9.88;37.95
76637;BME280;65532;52.124;5.480;2023-04-03T13:55:20;103125.47;;;9.88;38.11
76637;BME280;65532;52.124;5.480;2023-04-03T14:00:48;103121.25;;;10.02;37.90
76637;BME280;65532;52.124;5.480;2023-04-03T14:05:52;103114.69;;;9.64;37.37
76637;BME280;65532;52.124;5.480;2023-04-03T14:08:19;103113.47;;;9.74;39.33
76637;BME280;65532;52.124;5.480;2023-04-03T14:11:01;103112.81;;;9.97;37.79
76637;BME280;65532;52.124;5.480;2023-04-03T14:13:29;103102.13;;;10.11;38.43
76637;BME280;65532;52.124;5.480;2023-04-03T14:15:56;103105.81;;;10.35;38.34
76637;BME280;65532;52.124;5.480;2023-04-03T14:18:34;103097.03;;;10.08;37.92
76637;BME280;65532;52.124;5.480;2023-04-03T14:21:03;103084.69;;;10.30;38.21
76637;BME280;65532;52.124;5.480;2023-04-03T14:23:29;103079.75;;;10.34;37.70
76637;BME280;65532;52.124;5.480;2023-04-03T14:25:57;103093.47;;;10.32;37.50
76637;BME280;65532;52.124;5.480;2023-04-03T14:28:23;103087.03;;;10.09;37.15
76637;BME280;65532;52.124;5.480;2023-04-03T14:30:50;103080.97;;;10.07;36.91
76637;BME280;65532;52.124;5.480;2023-04-03T14:33:20;103076.56;;;10.22;38.05